createdAt,value
2022-12-14T08:06:37.206Z,19.08
2022-12-14T08:12:11.309Z,12.82
2022-12-14T08:14:42.259Z,15.52
2022-12-14T08:20:15.617Z,19.05
2022-12-14T08:22:49.209Z,14.18
2022-12-14T08:25:20.145Z,18.45
2022-12-14T08:27:50.896Z,17.95
2022-12-14T08:30:21.666Z,18.23
2022-12-14T08:32:52.507Z,14.50
2022-12-14T08:35:24.229Z,13.40
2022-12-14T08:37:57.886Z,16.13
2022-12-14T08:40:28.701Z,14.85
2022-12-14T08:42:59.602Z,17.45
2022-12-14T08:45:30.502Z,18.40
2022-12-14T08:48:01.749Z,15.65
2022-12-14T08:50:32.821Z,17.25
2022-12-14T08:53:06.571Z,15.02
2022-12-14T08:55:39.588Z,16.58
2022-12-14T08:58:10.359Z,16.48
2022-12-14T09:00:41.353Z,15.30
2022-12-14T09:06:27.962Z,17.23
2022-12-14T09:09:01.391Z,21.30
2022-12-14T09:11:32.765Z,19.60
2022-12-14T09:14:05.000Z,16.23
2022-12-14T09:16:38.379Z,18.48
2022-12-14T09:19:09.152Z,15.32
2022-12-14T09:21:40.037Z,14.05
2022-12-14T09:24:14.021Z,17.27
2022-12-14T09:26:44.727Z,14.88
2022-12-14T09:29:18.606Z,18.58
2022-12-14T09:31:49.870Z,15.05
2022-12-14T09:34:21.955Z,17.00
2022-12-14T09:36:53.183Z,15.98
2022-12-14T09:39:26.928Z,22.23
2022-12-14T09:42:11.959Z,16.60
2022-12-14T09:44:52.324Z,15.73
2022-12-14T09:47:28.652Z,17.58
2022-12-14T09:50:04.291Z,15.73
2022-12-14T09:52:41.633Z,23.15
2022-12-14T09:55:23.021Z,21.08
2022-12-14T09:57:59.771Z,16.75
2022-12-14T10:00:38.177Z,19.10
2022-12-14T10:03:35.030Z,15.18
2022-12-14T10:06:28.210Z,20.60
2022-12-14T10:09:07.386Z,20.63
2022-12-14T10:11:45.733Z,17.73
2022-12-14T10:14:22.169Z,22.33
2022-12-14T10:17:01.081Z,19.25
2022-12-14T10:19:40.600Z,18.20
2022-12-14T10:22:17.928Z,19.73
2022-12-14T10:24:54.356Z,17.05
2022-12-14T10:27:38.156Z,18.27
2022-12-14T10:30:24.200Z,14.95
2022-12-14T10:33:03.328Z,25.30
2022-12-14T10:35:39.567Z,17.00
2022-12-14T10:38:28.330Z,17.02
2022-12-14T10:41:10.653Z,17.25
2022-12-14T10:43:50.784Z,19.42
2022-12-14T10:46:28.501Z,17.58
2022-12-14T10:49:05.125Z,15.50
2022-12-14T10:51:40.514Z,21.25
2022-12-14T10:54:20.043Z,17.10
2022-12-14T10:56:52.445Z,20.10
2022-12-14T10:59:40.626Z,18.05
2022-12-14T11:02:18.630Z,18.25
2022-12-14T11:04:54.488Z,18.95
2022-12-14T11:07:27.534Z,22.33
2022-12-14T11:10:22.254Z,17.00
2022-12-14T11:13:02.118Z,16.25
2022-12-14T11:15:38.116Z,21.73
2022-12-14T11:18:26.957Z,19.80
2022-12-14T11:23:58.678Z,20.30
2022-12-14T11:26:35.271Z,18.50
2022-12-14T11:29:09.277Z,16.95
2022-12-14T11:31:47.479Z,20.83
2022-12-14T11:34:34.551Z,23.17
2022-12-14T11:37:16.535Z,33.75
2022-12-14T11:39:53.327Z,22.25
2022-12-14T11:42:27.282Z,17.85
2022-12-14T11:45:18.461Z,15.48
2022-12-14T11:48:28.047Z,14.52
2022-12-14T11:51:12.885Z,13.50
2022-12-14T11:53:44.290Z,19.05
2022-12-14T11:56:19.052Z,20.15
2022-12-14T11:58:54.777Z,24.25
2022-12-14T12:01:29.478Z,18.52
2022-12-14T12:04:04.503Z,21.98
2022-12-14T12:06:35.467Z,23.27
2022-12-14T12:09:20.632Z,18.48
2022-12-14T12:11:51.433Z,20.90
2022-12-14T12:14:32.547Z,19.65
2022-12-14T12:17:05.530Z,20.08
2022-12-14T12:19:42.951Z,21.40
2022-12-14T12:22:19.064Z,18.85
2022-12-14T12:25:24.187Z,18.05
2022-12-14T12:27:53.608Z,20.08
2022-12-14T12:30:30.619Z,17.92
2022-12-14T12:33:12.324Z,23.40
2022-12-14T12:35:52.081Z,23.30
2022-12-14T12:38:33.789Z,20.65
2022-12-14T12:41:15.985Z,22.70
2022-12-14T12:43:53.682Z,23.90
2022-12-14T12:46:30.011Z,20.17
2022-12-14T12:52:11.725Z,23.88
2022-12-14T12:54:58.409Z,18.13
2022-12-14T12:57:33.927Z,21.70
2022-12-14T13:00:06.381Z,17.67
2022-12-14T13:02:41.202Z,14.88
2022-12-14T13:05:45.887Z,18.98
2022-12-14T13:08:22.172Z,19.83
2022-12-14T13:13:53.229Z,18.30
2022-12-14T13:16:28.569Z,20.02
2022-12-14T13:19:40.450Z,16.17
2022-12-14T13:22:05.230Z,15.77
2022-12-14T13:28:08.181Z,16.92
2022-12-14T13:31:01.691Z,15.98
2022-12-14T13:37:14.599Z,12.90
2022-12-14T13:40:01.976Z,13.60
2022-12-14T13:42:40.611Z,14.43
2022-12-14T13:45:21.331Z,13.75
2022-12-14T13:47:55.436Z,14.07
2022-12-14T13:50:37.182Z,15.32
2022-12-14T13:53:17.360Z,32.00
2022-12-14T13:55:52.679Z,16.40
2022-12-14T13:58:28.888Z,17.40
2022-12-14T14:01:16.916Z,20.65
2022-12-14T14:03:57.694Z,22.77
2022-12-14T14:06:41.264Z,19.70
2022-12-14T14:09:42.191Z,22.05
2022-12-14T14:12:36.143Z,20.88
2022-12-14T14:15:38.303Z,18.67
2022-12-14T14:18:18.307Z,19.23
2022-12-14T14:20:57.008Z,18.58
2022-12-14T14:23:43.221Z,16.30
2022-12-14T14:26:25.112Z,16.60
2022-12-14T14:29:23.233Z,16.35
2022-12-14T14:31:57.775Z,14.40
2022-12-14T14:34:51.123Z,15.30
2022-12-14T14:37:31.111Z,19.42
2022-12-14T14:40:50.981Z,23.73
2022-12-14T14:43:30.328Z,22.27
2022-12-14T14:46:04.916Z,18.80
2022-12-14T14:48:38.391Z,19.65
2022-12-14T14:51:22.997Z,17.52
2022-12-14T14:57:38.511Z,19.55
2022-12-14T15:00:13.914Z,27.75
2022-12-14T15:02:45.751Z,18.85
2022-12-14T15:08:09.758Z,19.92
2022-12-14T15:10:47.077Z,22.40
2022-12-14T15:13:23.488Z,20.55
2022-12-14T15:15:58.332Z,23.95
2022-12-14T15:18:32.193Z,23.55
2022-12-14T15:21:06.898Z,22.75
2022-12-14T15:23:39.853Z,23.40
2022-12-14T15:26:18.144Z,25.42
2022-12-14T15:28:56.978Z,27.13
2022-12-14T15:31:38.335Z,24.05
2022-12-14T15:34:13.224Z,26.13
2022-12-14T15:36:47.680Z,25.98
2022-12-14T15:39:44.436Z,23.65
2022-12-14T15:42:21.856Z,22.30
2022-12-14T15:44:56.602Z,22.77
2022-12-14T15:47:30.196Z,22.80
2022-12-14T15:56:18.183Z,26.10
2022-12-14T15:58:53.189Z,24.05
2022-12-14T16:01:26.835Z,29.77
2022-12-14T16:04:02.190Z,27.27
2022-12-14T16:06:39.019Z,27.13
2022-12-14T16:09:14.236Z,34.10
2022-12-14T16:11:49.433Z,32.97
2022-12-14T16:14:28.240Z,34.35
2022-12-14T16:16:59.746Z,36.88
2022-12-14T16:19:57.413Z,33.75
2022-12-14T16:22:28.351Z,39.25
2022-12-14T16:25:19.499Z,31.98
2022-12-14T16:27:52.836Z,43.15
2022-12-14T16:30:37.282Z,36.80
2022-12-14T16:33:17.075Z,42.95
2022-12-14T16:42:12.146Z,51.92
2022-12-14T16:44:53.999Z,55.53
2022-12-14T16:48:04.478Z,54.67
2022-12-14T16:53:29.659Z,60.90
2022-12-14T16:56:07.183Z,59.55
2022-12-14T16:58:39.187Z,54.60
2022-12-14T17:01:12.929Z,52.60
2022-12-14T17:03:54.728Z,53.03
2022-12-14T17:06:31.478Z,49.35
2022-12-14T17:09:03.683Z,55.55
2022-12-14T19:16:30.492Z,40.35
2022-12-14T19:19:03.118Z,35.95
2022-12-14T19:54:07.740Z,35.95
2022-12-14T19:56:38.892Z,28.52
2022-12-14T19:59:09.815Z,31.77
2022-12-14T20:01:47.671Z,33.10
2022-12-14T20:04:21.392Z,31.75
2022-12-14T20:06:52.243Z,32.97
2022-12-14T20:09:26.732Z,32.25
2022-12-14T20:11:59.893Z,31.88
2022-12-14T20:17:13.516Z,38.22
2022-12-14T20:19:47.429Z,34.10
2022-12-14T20:22:18.306Z,39.20
2022-12-14T20:24:51.795Z,32.35
2022-12-14T20:27:22.610Z,29.17
2022-12-14T20:29:54.493Z,32.28
2022-12-14T20:32:25.314Z,32.25
2022-12-14T20:34:56.086Z,30.80
2022-12-14T20:37:28.080Z,28.80
2022-12-14T20:40:03.632Z,39.50
2022-12-14T20:42:34.483Z,30.77
2022-12-14T20:45:08.754Z,32.05
2022-12-14T20:47:39.615Z,32.10
2022-12-14T20:50:17.814Z,39.08
2022-12-14T20:52:49.138Z,31.02
2022-12-14T20:55:25.062Z,31.33
2022-12-14T20:57:55.861Z,32.65
2022-12-14T21:00:26.979Z,28.63
2022-12-14T21:02:58.002Z,32.92
2022-12-14T21:05:29.375Z,33.03
2022-12-14T21:08:00.883Z,28.85
2022-12-14T21:10:39.840Z,28.90
2022-12-14T21:13:10.622Z,30.58
2022-12-14T21:15:42.580Z,31.02
2022-12-14T21:18:14.908Z,31.88
2022-12-14T21:20:49.213Z,28.48
2022-12-14T21:23:20.181Z,30.38
2022-12-14T21:25:53.654Z,28.02
2022-12-14T21:28:30.410Z,31.60
2022-12-14T21:31:05.425Z,33.00
